sensor_id;sensor_type;location;lat;lon;timestamp;P1;durP1;ratioP1;P2;durP2;ratioP2
29358;SDS011;16347;53.232;6.556;2022-07-23T00:00:48;8.65;;;3.25;;
29358;SDS011;16347;53.232;6.556;2022-07-23T00:03:16;14.23;;;3.97;;
29358;SDS011;16347;53.232;6.556;2022-07-23T00:05:46;5.45;;;3.38;;
29358;SDS011;16347;53.232;6.556;2022-07-23T00:08:14;5.20;;;2.83;;
29358;SDS011;16347;53.232;6.556;2022-07-23T00:10:42;5.95;;;2.78;;
29358;SDS011;16347;53.232;6.556;2022-07-23T00:13:10;9.07;;;3.70;;
29358;SDS011;16347;53.232;6.556;2022-07-23T00:15:38;6.28;;;3.70;;
29358;SDS011;16347;53.232;6.556;2022-07-23T00:18:06;5.03;;;3.03;;
29358;SDS011;16347;53.232;6.556;2022-07-23T00:20:34;10.25;;;3.28;;
29358;SDS011;16347;53.232;6.556;2022-07-23T00:23:03;6.28;;;3.08;;
29358;SDS011;16347;53.232;6.556;2022-07-23T00:25:32;6.45;;;3.08;;
29358;SDS011;16347;53.232;6.556;2022-07-23T00:28:00;10.73;;;3.17;;
29358;SDS011;16347;53.232;6.556;2022-07-23T00:30:29;8.10;;;3.90;;
29358;SDS011;16347;53.232;6.556;2022-07-23T00:32:59;9.18;;;4.05;;
29358;SDS011;16347;53.232;6.556;2022-07-23T00:35:30;9.80;;;3.75;;
29358;SDS011;16347;53.232;6.556;2022-07-23T00:38:00;10.40;;;3.50;;
29358;SDS011;16347;53.232;6.556;2022-07-23T00:40:31;7.65;;;3.35;;
29358;SDS011;16347;53.232;6.556;2022-07-23T00:42:59;7.72;;;3.15;;
29358;SDS011;16347;53.232;6.556;2022-07-23T00:45:27;8.32;;;3.67;;
29358;SDS011;16347;53.232;6.556;2022-07-23T00:47:56;10.25;;;3.40;;
29358;SDS011;16347;53.232;6.556;2022-07-23T00:50:24;6.03;;;3.30;;
29358;SDS011;16347;53.232;6.556;2022-07-23T00:52:52;8.43;;;3.67;;
29358;SDS011;16347;53.232;6.556;2022-07-23T00:55:21;7.88;;;3.20;;
29358;SDS011;16347;53.232;6.556;2022-07-23T00:57:50;5.68;;;3.60;;
29358;SDS011;16347;53.232;6.556;2022-07-23T01:00:20;12.30;;;3.42;;
29358;SDS011;16347;53.232;6.556;2022-07-23T01:02:48;8.68;;;3.33;;
29358;SDS011;16347;53.232;6.556;2022-07-23T01:05:16;5.10;;;3.17;;
29358;SDS011;16347;53.232;6.556;2022-07-23T01:07:49;5.22;;;2.83;;
29358;SDS011;16347;53.232;6.556;2022-07-23T01:10:21;7.00;;;3.38;;
29358;SDS011;16347;53.232;6.556;2022-07-23T01:13:01;4.35;;;3.15;;
29358;SDS011;16347;53.232;6.556;2022-07-23T01:15:31;3.60;;;2.47;;
29358;SDS011;16347;53.232;6.556;2022-07-23T01:17:59;10.35;;;3.65;;
29358;SDS011;16347;53.232;6.556;2022-07-23T01:20:28;4.70;;;3.05;;
29358;SDS011;16347;53.232;6.556;2022-07-23T01:22:58;7.03;;;3.05;;
29358;SDS011;16347;53.232;6.556;2022-07-23T01:25:26;8.60;;;3.40;;
29358;SDS011;16347;53.232;6.556;2022-07-23T01:27:57;6.30;;;2.80;;
29358;SDS011;16347;53.232;6.556;2022-07-23T01:30:25;4.25;;;2.92;;
29358;SDS011;16347;53.232;6.556;2022-07-23T01:32:55;7.57;;;2.95;;
29358;SDS011;16347;53.232;6.556;2022-07-23T01:35:23;7.47;;;3.35;;
29358;SDS011;16347;53.232;6.556;2022-07-23T01:37:55;6.80;;;2.60;;
29358;SDS011;16347;53.232;6.556;2022-07-23T01:40:25;7.38;;;3.25;;
29358;SDS011;16347;53.232;6.556;2022-07-23T01:42:54;6.05;;;2.83;;
29358;SDS011;16347;53.232;6.556;2022-07-23T01:45:22;5.80;;;2.85;;
29358;SDS011;16347;53.232;6.556;2022-07-23T01:47:51;4.75;;;2.75;;
29358;SDS011;16347;53.232;6.556;2022-07-23T01:50:19;5.65;;;2.72;;
29358;SDS011;16347;53.232;6.556;2022-07-23T01:53:06;5.82;;;2.55;;
29358;SDS011;16347;53.232;6.556;2022-07-23T01:55:36;6.03;;;2.95;;
29358;SDS011;16347;53.232;6.556;2022-07-23T01:58:04;8.27;;;2.80;;
29358;SDS011;16347;53.232;6.556;2022-07-23T02:00:33;5.75;;;3.10;;
29358;SDS011;16347;53.232;6.556;2022-07-23T02:03:01;4.80;;;2.95;;
29358;SDS011;16347;53.232;6.556;2022-07-23T02:05:29;5.93;;;3.08;;
29358;SDS011;16347;53.232;6.556;2022-07-23T02:07:58;4.63;;;3.20;;
29358;SDS011;16347;53.232;6.556;2022-07-23T02:10:32;6.55;;;2.90;;
29358;SDS011;16347;53.232;6.556;2022-07-23T02:13:04;9.55;;;2.88;;
29358;SDS011;16347;53.232;6.556;2022-07-23T02:15:32;3.22;;;2.70;;
29358;SDS011;16347;53.232;6.556;2022-07-23T02:18:00;6.03;;;2.90;;
29358;SDS011;16347;53.232;6.556;2022-07-23T02:20:30;7.78;;;2.65;;
29358;SDS011;16347;53.232;6.556;2022-07-23T02:22:58;4.28;;;2.47;;
29358;SDS011;16347;53.232;6.556;2022-07-23T02:25:26;8.32;;;3.28;;
29358;SDS011;16347;53.232;6.556;2022-07-23T02:28:00;8.60;;;3.10;;
29358;SDS011;16347;53.232;6.556;2022-07-23T02:30:29;5.10;;;2.47;;
29358;SDS011;16347;53.232;6.556;2022-07-23T02:32:57;4.55;;;2.70;;
29358;SDS011;16347;53.232;6.556;2022-07-23T02:35:25;8.02;;;3.20;;
29358;SDS011;16347;53.232;6.556;2022-07-23T02:37:56;8.52;;;3.20;;
29358;SDS011;16347;53.232;6.556;2022-07-23T02:40:25;7.28;;;3.40;;
29358;SDS011;16347;53.232;6.556;2022-07-23T02:42:53;7.28;;;2.53;;
29358;SDS011;16347;53.232;6.556;2022-07-23T02:45:21;9.13;;;3.30;;
29358;SDS011;16347;53.232;6.556;2022-07-23T02:47:52;8.15;;;3.42;;
29358;SDS011;16347;53.232;6.556;2022-07-23T02:50:20;8.93;;;3.42;;
29358;SDS011;16347;53.232;6.556;2022-07-23T02:52:50;12.02;;;3.00;;
29358;SDS011;16347;53.232;6.556;2022-07-23T02:55:18;5.20;;;3.38;;
29358;SDS011;16347;53.232;6.556;2022-07-23T02:57:46;5.15;;;3.08;;
29358;SDS011;16347;53.232;6.556;2022-07-23T03:00:14;9.50;;;3.30;;
29358;SDS011;16347;53.232;6.556;2022-07-23T03:02:42;10.43;;;3.50;;
29358;SDS011;16347;53.232;6.556;2022-07-23T03:05:11;3.00;;;2.47;;
29358;SDS011;16347;53.232;6.556;2022-07-23T03:07:39;6.90;;;3.78;;
29358;SDS011;16347;53.232;6.556;2022-07-23T03:10:07;6.20;;;3.10;;
29358;SDS011;16347;53.232;6.556;2022-07-23T03:12:36;9.65;;;3.35;;
29358;SDS011;16347;53.232;6.556;2022-07-23T03:15:04;10.90;;;3.95;;
29358;SDS011;16347;53.232;6.556;2022-07-23T03:17:33;6.25;;;3.25;;
29358;SDS011;16347;53.232;6.556;2022-07-23T03:20:02;6.80;;;3.30;;
29358;SDS011;16347;53.232;6.556;2022-07-23T03:22:32;5.35;;;3.08;;
29358;SDS011;16347;53.232;6.556;2022-07-23T03:25:03;7.53;;;2.97;;
29358;SDS011;16347;53.232;6.556;2022-07-23T03:27:34;6.07;;;3.20;;
29358;SDS011;16347;53.232;6.556;2022-07-23T03:30:04;7.22;;;3.15;;
29358;SDS011;16347;53.232;6.556;2022-07-23T03:32:33;7.75;;;3.40;;
29358;SDS011;16347;53.232;6.556;2022-07-23T03:35:01;6.03;;;3.60;;
29358;SDS011;16347;53.232;6.556;2022-07-23T03:37:34;6.40;;;3.40;;
29358;SDS011;16347;53.232;6.556;2022-07-23T03:40:02;7.10;;;2.97;;
29358;SDS011;16347;53.232;6.556;2022-07-23T03:42:30;8.07;;;3.60;;
29358;SDS011;16347;53.232;6.556;2022-07-23T03:44:59;5.70;;;3.10;;
29358;SDS011;16347;53.232;6.556;2022-07-23T03:47:28;7.90;;;3.90;;
29358;SDS011;16347;53.232;6.556;2022-07-23T03:49:57;9.30;;;3.38;;
29358;SDS011;16347;53.232;6.556;2022-07-23T03:52:25;9.75;;;3.75;;
29358;SDS011;16347;53.232;6.556;2022-07-23T03:54:55;15.98;;;3.83;;
29358;SDS011;16347;53.232;6.556;2022-07-23T03:57:23;7.53;;;3.15;;
29358;SDS011;16347;53.232;6.556;2022-07-23T03:59:52;15.55;;;3.33;;
29358;SDS011;16347;53.232;6.556;2022-07-23T04:02:20;7.22;;;2.97;;
29358;SDS011;16347;53.232;6.556;2022-07-23T04:04:49;8.30;;;3.72;;
29358;SDS011;16347;53.232;6.556;2022-07-23T04:07:17;8.82;;;3.53;;
29358;SDS011;16347;53.232;6.556;2022-07-23T04:09:45;5.75;;;3.00;;
29358;SDS011;16347;53.232;6.556;2022-07-23T04:12:14;5.40;;;2.75;;
29358;SDS011;16347;53.232;6.556;2022-07-23T04:14:42;6.82;;;3.00;;
29358;SDS011;16347;53.232;6.556;2022-07-23T04:17:11;7.40;;;2.50;;
29358;SDS011;16347;53.232;6.556;2022-07-23T04:19:40;7.82;;;3.05;;
29358;SDS011;16347;53.232;6.556;2022-07-23T04:22:12;10.80;;;3.00;;
29358;SDS011;16347;53.232;6.556;2022-07-23T04:24:41;5.38;;;3.35;;
29358;SDS011;16347;53.232;6.556;2022-07-23T04:27:09;5.68;;;3.75;;
29358;SDS011;16347;53.232;6.556;2022-07-23T04:29:40;9.13;;;3.88;;
29358;SDS011;16347;53.232;6.556;2022-07-23T04:32:08;8.25;;;3.67;;
29358;SDS011;16347;53.232;6.556;2022-07-23T04:34:37;10.52;;;4.10;;
29358;SDS011;16347;53.232;6.556;2022-07-23T04:37:05;11.85;;;4.05;;
29358;SDS011;16347;53.232;6.556;2022-07-23T04:39:34;11.13;;;4.10;;
29358;SDS011;16347;53.232;6.556;2022-07-23T04:42:03;10.25;;;4.15;;
29358;SDS011;16347;53.232;6.556;2022-07-23T04:44:31;8.23;;;3.78;;
29358;SDS011;16347;53.232;6.556;2022-07-23T04:47:02;10.68;;;4.00;;
29358;SDS011;16347;53.232;6.556;2022-07-23T04:49:32;12.30;;;4.30;;
29358;SDS011;16347;53.232;6.556;2022-07-23T04:52:00;8.57;;;3.78;;
29358;SDS011;16347;53.232;6.556;2022-07-23T04:54:28;5.60;;;3.20;;
29358;SDS011;16347;53.232;6.556;2022-07-23T04:56:56;7.43;;;3.72;;
29358;SDS011;16347;53.232;6.556;2022-07-23T04:59:24;5.03;;;3.78;;
29358;SDS011;16347;53.232;6.556;2022-07-23T05:01:58;5.32;;;3.60;;
29358;SDS011;16347;53.232;6.556;2022-07-23T05:04:27;4.03;;;3.00;;
29358;SDS011;16347;53.232;6.556;2022-07-23T05:06:56;5.90;;;3.35;;
29358;SDS011;16347;53.232;6.556;2022-07-23T05:09:24;8.95;;;3.08;;
29358;SDS011;16347;53.232;6.556;2022-07-23T05:11:52;6.43;;;3.60;;
29358;SDS011;16347;53.232;6.556;2022-07-23T05:14:21;9.07;;;3.60;;
29358;SDS011;16347;53.232;6.556;2022-07-23T05:16:50;7.93;;;4.00;;
29358;SDS011;16347;53.232;6.556;2022-07-23T05:19:21;6.07;;;2.95;;
29358;SDS011;16347;53.232;6.556;2022-07-23T05:21:53;9.45;;;3.35;;
29358;SDS011;16347;53.232;6.556;2022-07-23T05:24:21;8.45;;;4.43;;
29358;SDS011;16347;53.232;6.556;2022-07-23T05:26:50;8.68;;;3.42;;
29358;SDS011;16347;53.232;6.556;2022-07-23T05:29:18;5.75;;;3.35;;
29358;SDS011;16347;53.232;6.556;2022-07-23T05:31:46;5.57;;;3.22;;
29358;SDS011;16347;53.232;6.556;2022-07-23T05:34:14;16.95;;;3.80;;
29358;SDS011;16347;53.232;6.556;2022-07-23T05:36:45;5.60;;;3.70;;
29358;SDS011;16347;53.232;6.556;2022-07-23T05:39:15;5.45;;;3.30;;
29358;SDS011;16347;53.232;6.556;2022-07-23T05:41:43;4.68;;;2.90;;
29358;SDS011;16347;53.232;6.556;2022-07-23T05:44:12;8.35;;;3.80;;
29358;SDS011;16347;53.232;6.556;2022-07-23T05:46:42;6.57;;;3.53;;
29358;SDS011;16347;53.232;6.556;2022-07-23T05:49:16;6.07;;;3.28;;
29358;SDS011;16347;53.232;6.556;2022-07-23T05:52:03;4.07;;;2.80;;
29358;SDS011;16347;53.232;6.556;2022-07-23T05:54:53;6.25;;;2.75;;
29358;SDS011;16347;53.232;6.556;2022-07-23T05:57:21;4.35;;;2.85;;
29358;SDS011;16347;53.232;6.556;2022-07-23T05:59:51;4.88;;;2.95;;
29358;SDS011;16347;53.232;6.556;2022-07-23T06:02:19;5.40;;;2.22;;
29358;SDS011;16347;53.232;6.556;2022-07-23T06:04:47;10.15;;;2.50;;
29358;SDS011;16347;53.232;6.556;2022-07-23T06:07:35;4.78;;;2.10;;
29358;SDS011;16347;53.232;6.556;2022-07-23T06:10:05;5.10;;;2.38;;
29358;SDS011;16347;53.232;6.556;2022-07-23T06:12:35;6.10;;;2.83;;
29358;SDS011;16347;53.232;6.556;2022-07-23T06:15:05;7.75;;;3.00;;
29358;SDS011;16347;53.232;6.556;2022-07-23T06:17:37;6.13;;;2.50;;
29358;SDS011;16347;53.232;6.556;2022-07-23T06:20:06;4.82;;;2.40;;
29358;SDS011;16347;53.232;6.556;2022-07-23T06:22:37;6.30;;;2.30;;
29358;SDS011;16347;53.232;6.556;2022-07-23T06:25:07;6.53;;;2.10;;
29358;SDS011;16347;53.232;6.556;2022-07-23T06:27:44;8.80;;;2.42;;
29358;SDS011;16347;53.232;6.556;2022-07-23T06:30:13;3.22;;;1.92;;
29358;SDS011;16347;53.232;6.556;2022-07-23T06:32:44;4.97;;;2.25;;
29358;SDS011;16347;53.232;6.556;2022-07-23T06:35:13;2.92;;;1.88;;
29358;SDS011;16347;53.232;6.556;2022-07-23T06:37:41;5.22;;;3.20;;
29358;SDS011;16347;53.232;6.556;2022-07-23T06:40:13;4.80;;;2.45;;
29358;SDS011;16347;53.232;6.556;2022-07-23T06:42:41;4.25;;;2.00;;
29358;SDS011;16347;53.232;6.556;2022-07-23T06:45:15;4.82;;;2.05;;
29358;SDS011;16347;53.232;6.556;2022-07-23T06:47:46;4.45;;;2.25;;
29358;SDS011;16347;53.232;6.556;2022-07-23T06:50:14;6.22;;;2.58;;
29358;SDS011;16347;53.232;6.556;2022-07-23T06:52:42;3.63;;;2.47;;
29358;SDS011;16347;53.232;6.556;2022-07-23T06:55:10;5.53;;;2.03;;
29358;SDS011;16347;53.232;6.556;2022-07-23T06:57:39;7.45;;;2.10;;
29358;SDS011;16347;53.232;6.556;2022-07-23T07:00:07;7.22;;;2.28;;
29358;SDS011;16347;53.232;6.556;2022-07-23T07:02:36;4.20;;;2.40;;
29358;SDS011;16347;53.232;6.556;2022-07-23T07:05:05;5.18;;;2.45;;
29358;SDS011;16347;53.232;6.556;2022-07-23T07:07:33;2.92;;;1.83;;
29358;SDS011;16347;53.232;6.556;2022-07-23T07:10:02;2.90;;;1.70;;
29358;SDS011;16347;53.232;6.556;2022-07-23T07:12:30;3.95;;;1.80;;
29358;SDS011;16347;53.232;6.556;2022-07-23T07:14:59;2.67;;;1.33;;
29358;SDS011;16347;53.232;6.556;2022-07-23T07:17:27;2.10;;;0.77;;
29358;SDS011;16347;53.232;6.556;2022-07-23T07:19:55;1.90;;;0.93;;
29358;SDS011;16347;53.232;6.556;2022-07-23T07:22:23;0.98;;;0.65;;
29358;SDS011;16347;53.232;6.556;2022-07-23T07:24:51;4.75;;;1.00;;
29358;SDS011;16347;53.232;6.556;2022-07-23T07:27:19;3.50;;;1.17;;
29358;SDS011;16347;53.232;6.556;2022-07-23T07:29:47;1.90;;;0.68;;
29358;SDS011;16347;53.232;6.556;2022-07-23T07:32:17;1.52;;;0.50;;
29358;SDS011;16347;53.232;6.556;2022-07-23T07:35:05;1.70;;;0.40;;
29358;SDS011;16347;53.232;6.556;2022-07-23T07:37:33;2.10;;;0.60;;
29358;SDS011;16347;53.232;6.556;2022-07-23T07:40:02;1.20;;;0.40;;
29358;SDS011;16347;53.232;6.556;2022-07-23T07:42:31;5.18;;;0.50;;
29358;SDS011;16347;53.232;6.556;2022-07-23T07:44:59;0.80;;;0.40;;
29358;SDS011;16347;53.232;6.556;2022-07-23T07:47:28;1.10;;;0.60;;
29358;SDS011;16347;53.232;6.556;2022-07-23T07:49:56;2.15;;;0.45;;
29358;SDS011;16347;53.232;6.556;2022-07-23T07:52:24;1.65;;;0.50;;
29358;SDS011;16347;53.232;6.556;2022-07-23T07:54:52;0.95;;;0.40;;
29358;SDS011;16347;53.232;6.556;2022-07-23T07:57:20;0.47;;;0.10;;
29358;SDS011;16347;53.232;6.556;2022-07-23T07:59:48;0.77;;;0.60;;
29358;SDS011;16347;53.232;6.556;2022-07-23T08:02:21;0.85;;;0.40;;
29358;SDS011;16347;53.232;6.556;2022-07-23T08:04:51;4.03;;;0.82;;
29358;SDS011;16347;53.232;6.556;2022-07-23T08:07:19;1.60;;;0.55;;
29358;SDS011;16347;53.232;6.556;2022-07-23T08:09:47;2.72;;;0.80;;
29358;SDS011;16347;53.232;6.556;2022-07-23T08:12:15;1.48;;;0.68;;
29358;SDS011;16347;53.232;6.556;2022-07-23T08:14:43;3.40;;;0.70;;
29358;SDS011;16347;53.232;6.556;2022-07-23T08:17:11;1.25;;;0.40;;
29358;SDS011;16347;53.232;6.556;2022-07-23T08:19:40;3.13;;;0.77;;
29358;SDS011;16347;53.232;6.556;2022-07-23T08:22:10;1.77;;;0.63;;
29358;SDS011;16347;53.232;6.556;2022-07-23T08:24:38;1.35;;;0.60;;
29358;SDS011;16347;53.232;6.556;2022-07-23T08:27:05;0.95;;;0.55;;
29358;SDS011;16347;53.232;6.556;2022-07-23T08:29:33;0.30;;;0.30;;
29358;SDS011;16347;53.232;6.556;2022-07-23T08:32:01;5.18;;;0.50;;
29358;SDS011;16347;53.232;6.556;2022-07-23T08:34:50;2.72;;;0.55;;
29358;SDS011;16347;53.232;6.556;2022-07-23T08:37:19;3.72;;;0.80;;
29358;SDS011;16347;53.232;6.556;2022-07-23T08:39:47;3.38;;;0.73;;
29358;SDS011;16347;53.232;6.556;2022-07-23T08:42:15;0.45;;;0.40;;
29358;SDS011;16347;53.232;6.556;2022-07-23T08:44:44;0.75;;;0.60;;
29358;SDS011;16347;53.232;6.556;2022-07-23T08:47:13;5.32;;;0.73;;
29358;SDS011;16347;53.232;6.556;2022-07-23T08:49:43;4.68;;;0.63;;
29358;SDS011;16347;53.232;6.556;2022-07-23T08:52:13;0.52;;;0.40;;
29358;SDS011;16347;53.232;6.556;2022-07-23T08:54:44;2.58;;;0.55;;
29358;SDS011;16347;53.232;6.556;2022-07-23T08:57:12;9.00;;;0.95;;
29358;SDS011;16347;53.232;6.556;2022-07-23T08:59:40;0.45;;;0.40;;
29358;SDS011;16347;53.232;6.556;2022-07-23T09:02:08;2.25;;;0.68;;
29358;SDS011;16347;53.232;6.556;2022-07-23T09:04:36;1.35;;;0.52;;
29358;SDS011;16347;53.232;6.556;2022-07-23T09:07:05;1.55;;;0.40;;
29358;SDS011;16347;53.232;6.556;2022-07-23T09:09:33;1.92;;;1.08;;
29358;SDS011;16347;53.232;6.556;2022-07-23T09:12:06;4.22;;;0.80;;
29358;SDS011;16347;53.232;6.556;2022-07-23T09:14:36;1.45;;;0.60;;
29358;SDS011;16347;53.232;6.556;2022-07-23T09:17:10;3.67;;;0.85;;
29358;SDS011;16347;53.232;6.556;2022-07-23T09:19:39;3.72;;;0.60;;
29358;SDS011;16347;53.232;6.556;2022-07-23T09:22:18;1.13;;;0.57;;
29358;SDS011;16347;53.232;6.556;2022-07-23T09:25:07;5.00;;;0.70;;
29358;SDS011;16347;53.232;6.556;2022-07-23T09:30:21;0.93;;;0.60;;
29358;SDS011;16347;53.232;6.556;2022-07-23T09:33:06;1.08;;;0.55;;
29358;SDS011;16347;53.232;6.556;2022-07-23T09:35:48;2.60;;;1.17;;
29358;SDS011;16347;53.232;6.556;2022-07-23T09:38:17;3.22;;;0.50;;
29358;SDS011;16347;53.232;6.556;2022-07-23T09:40:47;5.90;;;1.10;;
29358;SDS011;16347;53.232;6.556;2022-07-23T09:43:35;2.40;;;0.60;;
29358;SDS011;16347;53.232;6.556;2022-07-23T09:46:16;2.30;;;0.88;;
29358;SDS011;16347;53.232;6.556;2022-07-23T09:48:45;3.55;;;0.90;;
29358;SDS011;16347;53.232;6.556;2022-07-23T09:51:13;2.28;;;0.82;;
29358;SDS011;16347;53.232;6.556;2022-07-23T09:53:43;3.22;;;0.88;;
29358;SDS011;16347;53.232;6.556;2022-07-23T09:56:11;4.78;;;0.60;;
29358;SDS011;16347;53.232;6.556;2022-07-23T09:58:43;4.25;;;0.85;;
29358;SDS011;16347;53.232;6.556;2022-07-23T10:01:14;3.10;;;0.70;;
29358;SDS011;16347;53.232;6.556;2022-07-23T10:03:42;3.60;;;1.20;;
29358;SDS011;16347;53.232;6.556;2022-07-23T10:06:37;0.80;;;0.60;;
29358;SDS011;16347;53.232;6.556;2022-07-23T10:09:41;2.33;;;0.93;;
29358;SDS011;16347;53.232;6.556;2022-07-23T10:12:26;7.40;;;1.08;;
29358;SDS011;16347;53.232;6.556;2022-07-23T10:15:20;2.33;;;0.98;;
29358;SDS011;16347;53.232;6.556;2022-07-23T10:17:48;7.15;;;0.77;;
29358;SDS011;16347;53.232;6.556;2022-07-23T10:20:16;4.47;;;1.10;;
29358;SDS011;16347;53.232;6.556;2022-07-23T10:22:46;1.35;;;0.73;;
29358;SDS011;16347;53.232;6.556;2022-07-23T10:25:29;4.53;;;1.30;;
29358;SDS011;16347;53.232;6.556;2022-07-23T10:28:15;2.67;;;0.82;;
29358;SDS011;16347;53.232;6.556;2022-07-23T10:31:14;3.10;;;1.15;;
29358;SDS011;16347;53.232;6.556;2022-07-23T10:34:15;3.10;;;1.13;;
29358;SDS011;16347;53.232;6.556;2022-07-23T10:36:49;2.90;;;1.00;;
29358;SDS011;16347;53.232;6.556;2022-07-23T10:39:22;5.38;;;1.60;;
29358;SDS011;16347;53.232;6.556;2022-07-23T10:41:57;2.83;;;1.02;;
29358;SDS011;16347;53.232;6.556;2022-07-23T10:44:37;2.15;;;0.95;;
29358;SDS011;16347;53.232;6.556;2022-07-23T10:47:10;2.95;;;1.25;;
29358;SDS011;16347;53.232;6.556;2022-07-23T10:49:59;3.75;;;1.00;;
29358;SDS011;16347;53.232;6.556;2022-07-23T10:55:48;4.72;;;1.20;;
29358;SDS011;16347;53.232;6.556;2022-07-23T10:58:18;3.60;;;1.50;;
29358;SDS011;16347;53.232;6.556;2022-07-23T11:00:48;3.15;;;1.23;;
29358;SDS011;16347;53.232;6.556;2022-07-23T11:03:34;1.90;;;0.95;;
29358;SDS011;16347;53.232;6.556;2022-07-23T11:06:06;4.03;;;1.40;;
29358;SDS011;16347;53.232;6.556;2022-07-23T11:08:34;3.60;;;1.33;;
29358;SDS011;16347;53.232;6.556;2022-07-23T11:11:09;3.13;;;1.27;;
29358;SDS011;16347;53.232;6.556;2022-07-23T11:13:39;2.40;;;1.02;;
29358;SDS011;16347;53.232;6.556;2022-07-23T11:16:12;4.18;;;1.25;;
29358;SDS011;16347;53.232;6.556;2022-07-23T11:21:41;3.42;;;1.50;;
29358;SDS011;16347;53.232;6.556;2022-07-23T11:24:10;1.70;;;1.13;;
29358;SDS011;16347;53.232;6.556;2022-07-23T11:26:43;3.92;;;1.40;;
29358;SDS011;16347;53.232;6.556;2022-07-23T11:32:31;3.47;;;1.20;;
29358;SDS011;16347;53.232;6.556;2022-07-23T11:35:06;5.78;;;1.40;;
29358;SDS011;16347;53.232;6.556;2022-07-23T11:37:47;3.83;;;1.40;;
29358;SDS011;16347;53.232;6.556;2022-07-23T11:40:15;3.92;;;1.30;;
29358;SDS011;16347;53.232;6.556;2022-07-23T11:42:51;2.72;;;1.55;;
29358;SDS011;16347;53.232;6.556;2022-07-23T11:45:21;3.92;;;1.75;;
29358;SDS011;16347;53.232;6.556;2022-07-23T11:47:49;5.18;;;1.40;;
29358;SDS011;16347;53.232;6.556;2022-07-23T11:50:22;5.00;;;1.30;;
29358;SDS011;16347;53.232;6.556;2022-07-23T11:55:20;3.67;;;1.60;;
29358;SDS011;16347;53.232;6.556;2022-07-23T11:57:50;3.00;;;1.45;;
29358;SDS011;16347;53.232;6.556;2022-07-23T12:00:20;2.33;;;0.98;;
29358;SDS011;16347;53.232;6.556;2022-07-23T12:02:49;5.80;;;1.23;;
29358;SDS011;16347;53.232;6.556;2022-07-23T12:05:21;7.15;;;1.30;;
29358;SDS011;16347;53.232;6.556;2022-07-23T12:07:52;2.53;;;1.00;;
29358;SDS011;16347;53.232;6.556;2022-07-23T12:10:22;4.60;;;1.15;;
29358;SDS011;16347;53.232;6.556;2022-07-23T12:12:53;5.88;;;1.00;;
29358;SDS011;16347;53.232;6.556;2022-07-23T12:15:23;3.00;;;1.10;;
29358;SDS011;16347;53.232;6.556;2022-07-23T12:17:55;2.22;;;0.93;;
29358;SDS011;16347;53.232;6.556;2022-07-23T12:20:26;5.30;;;1.45;;
29358;SDS011;16347;53.232;6.556;2022-07-23T12:22:57;3.03;;;1.13;;
29358;SDS011;16347;53.232;6.556;2022-07-23T12:25:27;7.82;;;1.20;;
29358;SDS011;16347;53.232;6.556;2022-07-23T12:28:01;3.58;;;0.90;;
29358;SDS011;16347;53.232;6.556;2022-07-23T12:30:32;2.47;;;1.10;;
29358;SDS011;16347;53.232;6.556;2022-07-23T12:33:01;3.25;;;1.02;;
29358;SDS011;16347;53.232;6.556;2022-07-23T12:35:32;6.13;;;1.08;;
29358;SDS011;16347;53.232;6.556;2022-07-23T12:38:03;2.03;;;0.90;;
29358;SDS011;16347;53.232;6.556;2022-07-23T12:40:33;2.13;;;1.20;;
29358;SDS011;16347;53.232;6.556;2022-07-23T12:43:03;2.60;;;1.10;;
29358;SDS011;16347;53.232;6.556;2022-07-23T12:45:42;5.00;;;1.15;;
29358;SDS011;16347;53.232;6.556;2022-07-23T12:48:17;3.47;;;1.13;;
29358;SDS011;16347;53.232;6.556;2022-07-23T12:50:52;2.90;;;1.00;;
29358;SDS011;16347;53.232;6.556;2022-07-23T12:53:25;3.38;;;1.20;;
29358;SDS011;16347;53.232;6.556;2022-07-23T12:55:58;9.73;;;1.20;;
29358;SDS011;16347;53.232;6.556;2022-07-23T12:58:45;1.42;;;0.90;;
29358;SDS011;16347;53.232;6.556;2022-07-23T13:01:27;6.72;;;1.38;;
29358;SDS011;16347;53.232;6.556;2022-07-23T13:04:00;3.30;;;1.73;;
29358;SDS011;16347;53.232;6.556;2022-07-23T13:06:40;4.13;;;1.08;;
29358;SDS011;16347;53.232;6.556;2022-07-23T13:09:15;2.10;;;1.42;;
29358;SDS011;16347;53.232;6.556;2022-07-23T13:11:45;3.70;;;1.30;;
29358;SDS011;16347;53.232;6.556;2022-07-23T13:14:14;4.90;;;1.27;;
29358;SDS011;16347;53.232;6.556;2022-07-23T13:16:46;7.35;;;3.50;;
29358;SDS011;16347;53.232;6.556;2022-07-23T13:19:16;4.68;;;1.48;;
29358;SDS011;16347;53.232;6.556;2022-07-23T13:21:46;4.40;;;1.55;;
29358;SDS011;16347;53.232;6.556;2022-07-23T13:24:14;5.90;;;1.45;;
29358;SDS011;16347;53.232;6.556;2022-07-23T13:26:42;6.35;;;1.17;;
29358;SDS011;16347;53.232;6.556;2022-07-23T13:29:16;2.70;;;1.17;;
29358;SDS011;16347;53.232;6.556;2022-07-23T13:31:45;2.40;;;1.20;;
29358;SDS011;16347;53.232;6.556;2022-07-23T13:34:16;3.83;;;1.30;;
29358;SDS011;16347;53.232;6.556;2022-07-23T13:36:47;2.53;;;1.33;;
29358;SDS011;16347;53.232;6.556;2022-07-23T13:39:15;5.07;;;0.95;;
29358;SDS011;16347;53.232;6.556;2022-07-23T13:41:43;6.38;;;2.00;;
29358;SDS011;16347;53.232;6.556;2022-07-23T13:44:16;3.83;;;1.30;;
29358;SDS011;16347;53.232;6.556;2022-07-23T13:46:48;6.05;;;1.90;;
29358;SDS011;16347;53.232;6.556;2022-07-23T13:49:17;4.00;;;1.20;;
29358;SDS011;16347;53.232;6.556;2022-07-23T13:51:48;1.75;;;1.00;;
29358;SDS011;16347;53.232;6.556;2022-07-23T13:54:17;4.85;;;1.48;;
29358;SDS011;16347;53.232;6.556;2022-07-23T13:56:45;2.92;;;1.42;;
29358;SDS011;16347;53.232;6.556;2022-07-23T13:59:13;2.95;;;1.63;;
29358;SDS011;16347;53.232;6.556;2022-07-23T14:01:42;5.68;;;1.45;;
29358;SDS011;16347;53.232;6.556;2022-07-23T14:04:31;5.28;;;1.88;;
29358;SDS011;16347;53.232;6.556;2022-07-23T14:07:01;3.97;;;1.30;;
29358;SDS011;16347;53.232;6.556;2022-07-23T14:09:30;8.13;;;2.03;;
29358;SDS011;16347;53.232;6.556;2022-07-23T14:12:00;4.40;;;1.10;;
29358;SDS011;16347;53.232;6.556;2022-07-23T14:14:28;4.60;;;1.20;;
29358;SDS011;16347;53.232;6.556;2022-07-23T14:16:56;3.95;;;1.30;;
29358;SDS011;16347;53.232;6.556;2022-07-23T14:19:27;1.20;;;0.95;;
29358;SDS011;16347;53.232;6.556;2022-07-23T14:21:56;2.33;;;1.13;;
29358;SDS011;16347;53.232;6.556;2022-07-23T14:24:26;3.33;;;1.60;;
29358;SDS011;16347;53.232;6.556;2022-07-23T14:27:01;4.65;;;1.52;;
29358;SDS011;16347;53.232;6.556;2022-07-23T14:29:45;2.23;;;0.73;;
29358;SDS011;16347;53.232;6.556;2022-07-23T14:32:20;6.35;;;2.42;;
29358;SDS011;16347;53.232;6.556;2022-07-23T14:34:48;6.03;;;2.13;;
29358;SDS011;16347;53.232;6.556;2022-07-23T14:37:17;1.73;;;1.10;;
29358;SDS011;16347;53.232;6.556;2022-07-23T14:39:47;1.98;;;1.20;;
29358;SDS011;16347;53.232;6.556;2022-07-23T14:42:15;4.40;;;1.40;;
29358;SDS011;16347;53.232;6.556;2022-07-23T14:44:44;6.10;;;1.75;;
29358;SDS011;16347;53.232;6.556;2022-07-23T14:47:12;2.05;;;1.30;;
29358;SDS011;16347;53.232;6.556;2022-07-23T14:50:00;3.60;;;1.40;;
29358;SDS011;16347;53.232;6.556;2022-07-23T14:52:28;2.35;;;1.10;;
29358;SDS011;16347;53.232;6.556;2022-07-23T14:54:58;3.63;;;1.42;;
29358;SDS011;16347;53.232;6.556;2022-07-23T14:57:26;5.95;;;1.35;;
29358;SDS011;16347;53.232;6.556;2022-07-23T14:59:54;9.15;;;1.30;;
29358;SDS011;16347;53.232;6.556;2022-07-23T15:02:22;1.40;;;1.08;;
29358;SDS011;16347;53.232;6.556;2022-07-23T15:04:50;1.23;;;0.98;;
29358;SDS011;16347;53.232;6.556;2022-07-23T15:07:18;5.13;;;1.25;;
29358;SDS011;16347;53.232;6.556;2022-07-23T15:09:46;3.83;;;2.28;;
29358;SDS011;16347;53.232;6.556;2022-07-23T15:12:17;3.28;;;1.83;;
29358;SDS011;16347;53.232;6.556;2022-07-23T15:14:47;2.17;;;1.70;;
29358;SDS011;16347;53.232;6.556;2022-07-23T15:17:16;8.60;;;3.08;;
29358;SDS011;16347;53.232;6.556;2022-07-23T15:19:46;3.08;;;1.27;;
29358;SDS011;16347;53.232;6.556;2022-07-23T15:22:15;2.35;;;1.30;;
29358;SDS011;16347;53.232;6.556;2022-07-23T15:24:43;8.10;;;1.95;;